sensor_id;sensor_type;location;lat;lon;timestamp;pressure;altitude;pressure_sealevel;temperature;humidity
73101;BME280;61288;53.446;-2.266;2023-12-04T00:00:03;101300.31;;;0.45;100.00
73101;BME280;61288;53.446;-2.266;2023-12-04T00:02:30;101305.41;;;0.46;100.00
73101;BME280;61288;53.446;-2.266;2023-12-04T00:04:55;101297.81;;;0.48;100.00
73101;BME280;61288;53.446;-2.266;2023-12-04T00:07:21;101299.47;;;0.47;100.00
73101;BME280;61288;53.446;-2.266;2023-12-04T00:09:49;101285.03;;;0.46;100.00
73101;BME280;61288;53.446;-2.266;2023-12-04T00:12:14;101280.78;;;0.48;100.00
73101;BME280;61288;53.446;-2.266;2023-12-04T00:14:40;101276.59;;;0.50;100.00
73101;BME280;61288;53.446;-2.266;2023-12-04T00:17:05;101271.50;;;0.50;100.00
73101;BME280;61288;53.446;-2.266;2023-12-04T00:19:31;101263.00;;;0.51;100.00
73101;BME280;61288;53.446;-2.266;2023-12-04T00:21:56;101261.28;;;0.52;100.00
73101;BME280;61288;53.446;-2.266;2023-12-04T00:24:22;101258.75;;;0.52;100.00
73101;BME280;61288;53.446;-2.266;2023-12-04T00:26:47;101258.75;;;0.52;100.00
73101;BME280;61288;53.446;-2.266;2023-12-04T00:29:13;101252.78;;;0.50;100.00
73101;BME280;61288;53.446;-2.266;2023-12-04T00:34:34;101243.41;;;0.49;100.00
73101;BME280;61288;53.446;-2.266;2023-12-04T00:37:05;101242.56;;;0.50;100.00
73101;BME280;61288;53.446;-2.266;2023-12-04T00:39:30;101230.69;;;0.52;100.00
73101;BME280;61288;53.446;-2.266;2023-12-04T00:41:56;101231.53;;;0.51;100.00
73101;BME280;61288;53.446;-2.266;2023-12-04T00:44:21;101223.91;;;0.52;100.00
73101;BME280;61288;53.446;-2.266;2023-12-04T00:46:47;101217.13;;;0.54;100.00
73101;BME280;61288;53.446;-2.266;2023-12-04T00:49:12;101216.25;;;0.54;100.00
73101;BME280;61288;53.446;-2.266;2023-12-04T00:51:38;101210.31;;;0.55;100.00
73101;BME280;61288;53.446;-2.266;2023-12-04T00:54:04;101204.38;;;0.56;100.00
73101;BME280;61288;53.446;-2.266;2023-12-04T00:56:30;101204.38;;;0.56;100.00
73101;BME280;61288;53.446;-2.266;2023-12-04T00:58:55;101201.84;;;0.57;100.00
73101;BME280;61288;53.446;-2.266;2023-12-04T01:01:21;101195.88;;;0.57;100.00
73101;BME280;61288;53.446;-2.266;2023-12-04T01:03:46;101189.09;;;0.57;100.00
73101;BME280;61288;53.446;-2.266;2023-12-04T01:06:23;101189.94;;;0.58;100.00
73101;BME280;61288;53.446;-2.266;2023-12-04T01:08:50;101193.34;;;0.59;100.00
73101;BME280;61288;53.446;-2.266;2023-12-04T01:11:16;101189.97;;;0.60;100.00
73101;BME280;61288;53.446;-2.266;2023-12-04T01:13:42;101195.94;;;0.62;100.00
73101;BME280;61288;53.446;-2.266;2023-12-04T01:16:08;101191.66;;;0.62;100.00
73101;BME280;61288;53.446;-2.266;2023-12-04T01:18:34;101187.47;;;0.66;100.00
73101;BME280;61288;53.446;-2.266;2023-12-04T01:21:00;101190.00;;;0.66;100.00
73101;BME280;61288;53.446;-2.266;2023-12-04T01:23:25;101184.09;;;0.70;100.00
73101;BME280;61288;53.446;-2.266;2023-12-04T01:25:51;101189.22;;;0.73;100.00
73101;BME280;61288;53.446;-2.266;2023-12-04T01:28:17;101186.69;;;0.75;100.00
73101;BME280;61288;53.446;-2.266;2023-12-04T01:30:42;101182.44;;;0.77;100.00
73101;BME280;61288;53.446;-2.266;2023-12-04T01:33:10;101178.22;;;0.79;100.00
73101;BME280;61288;53.446;-2.266;2023-12-04T01:35:36;101175.66;;;0.80;100.00
73101;BME280;61288;53.446;-2.266;2023-12-04T01:38:01;101175.72;;;0.83;100.00
73101;BME280;61288;53.446;-2.266;2023-12-04T01:40:27;101174.88;;;0.84;100.00
73101;BME280;61288;53.446;-2.266;2023-12-04T01:42:54;101183.38;;;0.86;100.00
73101;BME280;61288;53.446;-2.266;2023-12-04T01:45:19;101184.25;;;0.89;100.00
73101;BME280;61288;53.446;-2.266;2023-12-04T01:47:46;101184.25;;;0.90;100.00
73101;BME280;61288;53.446;-2.266;2023-12-04T01:50:12;101180.00;;;0.92;100.00
73101;BME280;61288;53.446;-2.266;2023-12-04T01:52:39;101185.97;;;0.93;100.00
73101;BME280;61288;53.446;-2.266;2023-12-04T01:55:06;101185.13;;;0.94;100.00
73101;BME280;61288;53.446;-2.266;2023-12-04T01:57:33;101187.69;;;0.95;100.00
73101;BME280;61288;53.446;-2.266;2023-12-04T01:59:59;101177.50;;;0.97;100.00
73101;BME280;61288;53.446;-2.266;2023-12-04T02:02:25;101182.59;;;0.98;100.00
73101;BME280;61288;53.446;-2.266;2023-12-04T02:04:54;101180.94;;;1.00;100.00
73101;BME280;61288;53.446;-2.266;2023-12-04T02:07:20;101177.50;;;1.00;100.00
73101;BME280;61288;53.446;-2.266;2023-12-04T02:09:46;101180.06;;;1.00;100.00
73101;BME280;61288;53.446;-2.266;2023-12-04T02:12:12;101183.47;;;0.99;100.00
73101;BME280;61288;53.446;-2.266;2023-12-04T02:14:37;101180.94;;;1.00;100.00
73101;BME280;61288;53.446;-2.266;2023-12-04T02:17:05;101169.00;;;1.01;100.00
73101;BME280;61288;53.446;-2.266;2023-12-04T02:19:31;101176.66;;;1.01;100.00
73101;BME280;61288;53.446;-2.266;2023-12-04T02:21:57;101179.25;;;1.03;100.00
73101;BME280;61288;53.446;-2.266;2023-12-04T02:24:22;101174.97;;;1.02;100.00
73101;BME280;61288;53.446;-2.266;2023-12-04T02:26:53;101171.59;;;1.03;100.00
73101;BME280;61288;53.446;-2.266;2023-12-04T02:29:25;101165.63;;;1.02;100.00
73101;BME280;61288;53.446;-2.266;2023-12-04T02:31:55;101163.94;;;1.03;100.00
73101;BME280;61288;53.446;-2.266;2023-12-04T02:34:23;101155.41;;;1.00;100.00
73101;BME280;61288;53.446;-2.266;2023-12-04T02:36:50;101144.34;;;1.00;100.00
73101;BME280;61288;53.446;-2.266;2023-12-04T02:39:17;101143.47;;;0.98;100.00
73101;BME280;61288;53.446;-2.266;2023-12-04T02:41:43;101145.16;;;0.97;100.00
73101;BME280;61288;53.446;-2.266;2023-12-04T02:44:09;101146.88;;;0.98;100.00
73101;BME280;61288;53.446;-2.266;2023-12-04T02:46:35;101141.75;;;0.98;100.00
73101;BME280;61288;53.446;-2.266;2023-12-04T02:49:00;101146.88;;;0.98;100.00
73101;BME280;61288;53.446;-2.266;2023-12-04T02:51:26;101140.94;;;1.01;100.00
73101;BME280;61288;53.446;-2.266;2023-12-04T02:53:52;101135.03;;;1.04;100.00
73101;BME280;61288;53.446;-2.266;2023-12-04T02:56:17;101138.44;;;1.06;100.00
73101;BME280;61288;53.446;-2.266;2023-12-04T02:58:43;101137.56;;;1.05;100.00
73101;BME280;61288;53.446;-2.266;2023-12-04T03:01:08;101127.38;;;1.08;100.00
73101;BME280;61288;53.446;-2.266;2023-12-04T03:03:34;101134.19;;;1.09;100.00
73101;BME280;61288;53.446;-2.266;2023-12-04T03:05:59;101127.41;;;1.13;100.00
73101;BME280;61288;53.446;-2.266;2023-12-04T03:08:25;101128.25;;;1.13;100.00
73101;BME280;61288;53.446;-2.266;2023-12-04T03:10:50;101126.56;;;1.14;100.00
73101;BME280;61288;53.446;-2.266;2023-12-04T03:13:16;101126.53;;;1.15;100.00
73101;BME280;61288;53.446;-2.266;2023-12-04T03:15:42;101125.72;;;1.17;100.00
73101;BME280;61288;53.446;-2.266;2023-12-04T03:18:08;101105.31;;;1.17;100.00
73101;BME280;61288;53.446;-2.266;2023-12-04T03:20:34;101110.41;;;1.18;100.00
73101;BME280;61288;53.446;-2.266;2023-12-04T03:22:59;101107.00;;;1.19;100.00
73101;BME280;61288;53.446;-2.266;2023-12-04T03:25:25;101109.56;;;1.19;100.00
73101;BME280;61288;53.446;-2.266;2023-12-04T03:27:51;101106.16;;;1.23;100.00
73101;BME280;61288;53.446;-2.266;2023-12-04T03:30:16;101096.81;;;1.25;100.00
73101;BME280;61288;53.446;-2.266;2023-12-04T03:32:42;101096.81;;;1.25;100.00
73101;BME280;61288;53.446;-2.266;2023-12-04T03:35:08;101088.31;;;1.25;100.00
73101;BME280;61288;53.446;-2.266;2023-12-04T03:37:37;101077.25;;;1.26;100.00
73101;BME280;61288;53.446;-2.266;2023-12-04T03:40:03;101072.16;;;1.27;100.00
73101;BME280;61288;53.446;-2.266;2023-12-04T03:42:29;101076.41;;;1.27;100.00
73101;BME280;61288;53.446;-2.266;2023-12-04T03:44:54;101056.84;;;1.23;100.00
73101;BME280;61288;53.446;-2.266;2023-12-04T03:47:20;101061.91;;;1.21;100.00
73101;BME280;61288;53.446;-2.266;2023-12-04T03:49:45;101055.97;;;1.19;100.00
73101;BME280;61288;53.446;-2.266;2023-12-04T03:52:11;101043.19;;;1.18;100.00
73101;BME280;61288;53.446;-2.266;2023-12-04T03:54:37;101044.91;;;1.19;100.00
73101;BME280;61288;53.446;-2.266;2023-12-04T03:57:03;101044.03;;;1.18;100.00
73101;BME280;61288;53.446;-2.266;2023-12-04T03:59:28;101035.56;;;1.21;100.00
73101;BME280;61288;53.446;-2.266;2023-12-04T04:01:55;101032.16;;;1.22;100.00
73101;BME280;61288;53.446;-2.266;2023-12-04T04:04:20;101033.00;;;1.24;100.00
73101;BME280;61288;53.446;-2.266;2023-12-04T04:06:46;101018.53;;;1.23;100.00
73101;BME280;61288;53.446;-2.266;2023-12-04T04:09:11;101024.50;;;1.22;100.00
73101;BME280;61288;53.446;-2.266;2023-12-04T04:11:37;101026.19;;;1.23;100.00
73101;BME280;61288;53.446;-2.266;2023-12-04T04:14:02;101027.06;;;1.25;100.00
73101;BME280;61288;53.446;-2.266;2023-12-04T04:16:28;101021.06;;;1.21;100.00
73101;BME280;61288;53.446;-2.266;2023-12-04T04:18:53;101021.94;;;1.23;100.00
73101;BME280;61288;53.446;-2.266;2023-12-04T04:21:19;101021.06;;;1.21;100.00
73101;BME280;61288;53.446;-2.266;2023-12-04T04:23:44;101011.72;;;1.20;100.00
73101;BME280;61288;53.446;-2.266;2023-12-04T04:26:10;101008.31;;;1.17;100.00
73101;BME280;61288;53.446;-2.266;2023-12-04T04:28:35;101006.59;;;1.17;100.00
73101;BME280;61288;53.446;-2.266;2023-12-04T04:31:01;101000.63;;;1.15;100.00
73101;BME280;61288;53.446;-2.266;2023-12-04T04:33:26;100993.81;;;1.12;100.00
73101;BME280;61288;53.446;-2.266;2023-12-04T04:35:52;100987.00;;;1.08;100.00
73101;BME280;61288;53.446;-2.266;2023-12-04T04:38:17;100976.81;;;1.07;100.00
73101;BME280;61288;53.446;-2.266;2023-12-04T04:40:43;100966.59;;;1.04;100.00
73101;BME280;61288;53.446;-2.266;2023-12-04T04:43:12;100964.00;;;1.02;100.00
73101;BME280;61288;53.446;-2.266;2023-12-04T04:45:38;100964.00;;;1.02;100.00
73101;BME280;61288;53.446;-2.266;2023-12-04T04:48:03;100950.41;;;1.02;100.00
73101;BME280;61288;53.446;-2.266;2023-12-04T04:50:29;100959.78;;;1.03;100.00
73101;BME280;61288;53.446;-2.266;2023-12-04T04:52:54;100951.25;;;1.00;100.00
73101;BME280;61288;53.446;-2.266;2023-12-04T04:55:20;100945.28;;;1.00;100.00
73101;BME280;61288;53.446;-2.266;2023-12-04T04:57:45;100951.25;;;1.02;100.00
73101;BME280;61288;53.446;-2.266;2023-12-04T05:00:11;100954.66;;;1.04;100.00
73101;BME280;61288;53.446;-2.266;2023-12-04T05:02:37;100946.16;;;1.07;100.00
73101;BME280;61288;53.446;-2.266;2023-12-04T05:05:03;100948.72;;;1.08;100.00
73101;BME280;61288;53.446;-2.266;2023-12-04T05:07:29;100950.41;;;1.09;100.00
73101;BME280;61288;53.446;-2.266;2023-12-04T05:09:54;100952.97;;;1.12;100.00
73101;BME280;61288;53.446;-2.266;2023-12-04T05:12:20;100961.50;;;1.13;100.00
73101;BME280;61288;53.446;-2.266;2023-12-04T05:14:45;100957.22;;;1.13;100.00
73101;BME280;61288;53.446;-2.266;2023-12-04T05:17:11;100951.28;;;1.14;100.00
73101;BME280;61288;53.446;-2.266;2023-12-04T05:19:36;100959.81;;;1.15;100.00
73101;BME280;61288;53.446;-2.266;2023-12-04T05:22:02;100951.31;;;1.18;100.00
73101;BME280;61288;53.446;-2.266;2023-12-04T05:24:27;100956.41;;;1.19;100.00
73101;BME280;61288;53.446;-2.266;2023-12-04T05:26:53;100958.97;;;1.19;100.00
73101;BME280;61288;53.446;-2.266;2023-12-04T05:29:18;100953.03;;;1.22;100.00
73101;BME280;61288;53.446;-2.266;2023-12-04T05:31:44;100945.38;;;1.22;100.00
73101;BME280;61288;53.446;-2.266;2023-12-04T05:34:09;100945.38;;;1.22;100.00
73101;BME280;61288;53.446;-2.266;2023-12-04T05:36:35;100947.91;;;1.23;100.00
73101;BME280;61288;53.446;-2.266;2023-12-04T05:39:01;100952.16;;;1.26;100.00
73101;BME280;61288;53.446;-2.266;2023-12-04T05:41:26;100949.63;;;1.26;100.00
73101;BME280;61288;53.446;-2.266;2023-12-04T05:43:52;100946.19;;;1.28;100.00
73101;BME280;61288;53.446;-2.266;2023-12-04T05:46:18;100948.75;;;1.32;100.00
73101;BME280;61288;53.446;-2.266;2023-12-04T05:48:44;100947.06;;;1.30;100.00
73101;BME280;61288;53.446;-2.266;2023-12-04T05:51:10;100951.31;;;1.33;100.00
73101;BME280;61288;53.446;-2.266;2023-12-04T05:53:36;100947.06;;;1.35;100.00
73101;BME280;61288;53.446;-2.266;2023-12-04T05:56:02;100947.94;;;1.37;100.00
73101;BME280;61288;53.446;-2.266;2023-12-04T05:58:28;100951.34;;;1.41;100.00
73101;BME280;61288;53.446;-2.266;2023-12-04T06:00:53;100945.38;;;1.43;100.00
73101;BME280;61288;53.446;-2.266;2023-12-04T06:03:19;100942.84;;;1.45;100.00
73101;BME280;61288;53.446;-2.266;2023-12-04T06:05:44;100936.88;;;1.44;100.00
73101;BME280;61288;53.446;-2.266;2023-12-04T06:08:10;100935.16;;;1.43;100.00
73101;BME280;61288;53.446;-2.266;2023-12-04T06:10:36;100938.59;;;1.44;100.00
73101;BME280;61288;53.446;-2.266;2023-12-04T06:13:05;100922.41;;;1.45;100.00
73101;BME280;61288;53.446;-2.266;2023-12-04T06:15:30;100925.81;;;1.46;100.00
73101;BME280;61288;53.446;-2.266;2023-12-04T06:17:56;100926.66;;;1.55;100.00
73101;BME280;61288;53.446;-2.266;2023-12-04T06:20:21;100927.53;;;1.56;100.00
73101;BME280;61288;53.446;-2.266;2023-12-04T06:22:47;100917.31;;;1.56;100.00
73101;BME280;61288;53.446;-2.266;2023-12-04T06:25:13;100922.41;;;1.56;100.00
73101;BME280;61288;53.446;-2.266;2023-12-04T06:27:39;100922.41;;;1.56;100.00
73101;BME280;61288;53.446;-2.266;2023-12-04T06:30:05;100921.56;;;1.55;100.00
73101;BME280;61288;53.446;-2.266;2023-12-04T06:32:32;100917.31;;;1.56;100.00
73101;BME280;61288;53.446;-2.266;2023-12-04T06:34:58;100911.34;;;1.57;100.00
73101;BME280;61288;53.446;-2.266;2023-12-04T06:37:24;100918.16;;;1.64;100.00
73101;BME280;61288;53.446;-2.266;2023-12-04T06:39:52;100905.38;;;1.61;100.00
73101;BME280;61288;53.446;-2.266;2023-12-04T06:42:18;100902.00;;;1.59;100.00
73101;BME280;61288;53.446;-2.266;2023-12-04T06:44:44;100902.81;;;1.59;100.00
73101;BME280;61288;53.446;-2.266;2023-12-04T06:47:11;100890.06;;;1.59;100.00
73101;BME280;61288;53.446;-2.266;2023-12-04T06:49:38;100895.16;;;1.59;100.00
73101;BME280;61288;53.446;-2.266;2023-12-04T06:52:04;100886.66;;;1.56;100.00
73101;BME280;61288;53.446;-2.266;2023-12-04T06:54:30;100887.50;;;1.59;100.00
73101;BME280;61288;53.446;-2.266;2023-12-04T06:56:56;100879.00;;;1.59;100.00
73101;BME280;61288;53.446;-2.266;2023-12-04T06:59:23;100881.53;;;1.57;100.00
73101;BME280;61288;53.446;-2.266;2023-12-04T07:01:49;100879.00;;;1.57;100.00
73101;BME280;61288;53.446;-2.266;2023-12-04T07:04:15;100880.69;;;1.55;100.00
73101;BME280;61288;53.446;-2.266;2023-12-04T07:06:46;100879.84;;;1.56;100.00
73101;BME280;61288;53.446;-2.266;2023-12-04T07:09:11;100873.88;;;1.57;100.00
73101;BME280;61288;53.446;-2.266;2023-12-04T07:11:37;100873.88;;;1.59;100.00
73101;BME280;61288;53.446;-2.266;2023-12-04T07:14:02;100873.03;;;1.58;100.00
73101;BME280;61288;53.446;-2.266;2023-12-04T07:16:28;100876.44;;;1.57;100.00
73101;BME280;61288;53.446;-2.266;2023-12-04T07:18:53;100879.84;;;1.58;100.00
73101;BME280;61288;53.446;-2.266;2023-12-04T07:21:19;100882.41;;;1.56;100.00
73101;BME280;61288;53.446;-2.266;2023-12-04T07:23:45;100882.41;;;1.58;100.00
73101;BME280;61288;53.446;-2.266;2023-12-04T07:26:10;100879.00;;;1.62;100.00
73101;BME280;61288;53.446;-2.266;2023-12-04T07:28:36;100881.53;;;1.64;100.00
73101;BME280;61288;53.446;-2.266;2023-12-04T07:31:01;100877.28;;;1.61;100.00
73101;BME280;61288;53.446;-2.266;2023-12-04T07:33:27;100879.00;;;1.59;100.00
73101;BME280;61288;53.446;-2.266;2023-12-04T07:35:54;100879.84;;;1.58;100.00
73101;BME280;61288;53.446;-2.266;2023-12-04T07:38:19;100879.84;;;1.58;100.00
73101;BME280;61288;53.446;-2.266;2023-12-04T07:40:45;100877.28;;;1.56;100.00
73101;BME280;61288;53.446;-2.266;2023-12-04T07:43:11;100881.56;;;1.56;100.00
73101;BME280;61288;53.446;-2.266;2023-12-04T07:45:37;100879.84;;;1.55;100.00
73101;BME280;61288;53.446;-2.266;2023-12-04T07:48:03;100879.00;;;1.56;100.00
73101;BME280;61288;53.446;-2.266;2023-12-04T07:50:29;100880.72;;;1.57;100.00
73101;BME280;61288;53.446;-2.266;2023-12-04T07:52:55;100882.41;;;1.58;100.00
73101;BME280;61288;53.446;-2.266;2023-12-04T07:55:20;100885.78;;;1.58;100.00
73101;BME280;61288;53.446;-2.266;2023-12-04T07:57:45;100886.66;;;1.62;100.00
73101;BME280;61288;53.446;-2.266;2023-12-04T08:00:13;100877.28;;;1.59;100.00
73101;BME280;61288;53.446;-2.266;2023-12-04T08:02:39;100884.09;;;1.59;100.00
73101;BME280;61288;53.446;-2.266;2023-12-04T08:05:05;100891.75;;;1.61;100.00
73101;BME280;61288;53.446;-2.266;2023-12-04T08:07:31;100910.50;;;1.61;100.00
73101;BME280;61288;53.446;-2.266;2023-12-04T08:09:57;100897.72;;;1.63;100.00
73101;BME280;61288;53.446;-2.266;2023-12-04T08:12:22;100901.13;;;1.66;100.00
73101;BME280;61288;53.446;-2.266;2023-12-04T08:14:48;100901.13;;;1.65;100.00
73101;BME280;61288;53.446;-2.266;2023-12-04T08:17:13;100904.53;;;1.64;100.00
73101;BME280;61288;53.446;-2.266;2023-12-04T08:19:39;100905.38;;;1.63;100.00
73101;BME280;61288;53.446;-2.266;2023-12-04T08:22:05;100909.63;;;1.64;100.00
73101;BME280;61288;53.446;-2.266;2023-12-04T08:24:30;100912.19;;;1.62;100.00
73101;BME280;61288;53.446;-2.266;2023-12-04T08:26:57;100913.06;;;1.61;100.00
73101;BME280;61288;53.446;-2.266;2023-12-04T08:29:24;100916.47;;;1.63;100.00
73101;BME280;61288;53.446;-2.266;2023-12-04T08:31:50;100911.34;;;1.62;100.00
73101;BME280;61288;53.446;-2.266;2023-12-04T08:34:16;100909.63;;;1.64;100.00
73101;BME280;61288;53.446;-2.266;2023-12-04T08:36:41;100919.84;;;1.64;100.00
73101;BME280;61288;53.446;-2.266;2023-12-04T08:39:08;100914.78;;;1.67;100.00
73101;BME280;61288;53.446;-2.266;2023-12-04T08:41:34;100913.91;;;1.68;100.00
73101;BME280;61288;53.446;-2.266;2023-12-04T08:43:59;100924.13;;;1.68;100.00
73101;BME280;61288;53.446;-2.266;2023-12-04T08:46:25;100914.78;;;1.67;100.00
73101;BME280;61288;53.446;-2.266;2023-12-04T08:48:51;100919.88;;;1.67;100.00
73101;BME280;61288;53.446;-2.266;2023-12-04T08:51:17;100928.38;;;1.67;100.00
73101;BME280;61288;53.446;-2.266;2023-12-04T08:53:43;100926.69;;;1.71;100.00
73101;BME280;61288;53.446;-2.266;2023-12-04T08:56:09;100919.84;;;1.71;100.00
73101;BME280;61288;53.446;-2.266;2023-12-04T08:58:34;100918.16;;;1.72;100.00
73101;BME280;61288;53.446;-2.266;2023-12-04T09:01:00;100920.72;;;1.75;100.00
73101;BME280;61288;53.446;-2.266;2023-12-04T09:03:25;100915.59;;;1.77;100.00
73101;BME280;61288;53.446;-2.266;2023-12-04T09:05:51;100923.28;;;1.78;100.00
73101;BME280;61288;53.446;-2.266;2023-12-04T09:08:17;100914.75;;;1.79;100.00
73101;BME280;61288;53.446;-2.266;2023-12-04T09:10:44;100917.31;;;1.84;100.00
73101;BME280;61288;53.446;-2.266;2023-12-04T09:13:11;100915.59;;;1.87;100.00
73101;BME280;61288;53.446;-2.266;2023-12-04T09:15:36;100923.25;;;1.92;100.00
73101;BME280;61288;53.446;-2.266;2023-12-04T09:18:02;100928.34;;;1.97;100.00
73101;BME280;61288;53.446;-2.266;2023-12-04T09:20:27;100928.34;;;2.01;100.00
73101;BME280;61288;53.446;-2.266;2023-12-04T09:22:53;100935.16;;;2.10;100.00
73101;BME280;61288;53.446;-2.266;2023-12-04T09:25:19;100928.31;;;2.14;100.00
73101;BME280;61288;53.446;-2.266;2023-12-04T09:27:44;100931.72;;;2.21;100.00
73101;BME280;61288;53.446;-2.266;2023-12-04T09:30:10;100935.13;;;2.23;100.00
73101;BME280;61288;53.446;-2.266;2023-12-04T09:32:38;100934.25;;;2.27;100.00
73101;BME280;61288;53.446;-2.266;2023-12-04T09:35:05;100935.13;;;2.32;100.00
73101;BME280;61288;53.446;-2.266;2023-12-04T09:37:30;100943.63;;;2.36;100.00
73101;BME280;61288;53.446;-2.266;2023-12-04T09:39:55;100938.50;;;2.39;100.00
73101;BME280;61288;53.446;-2.266;2023-12-04T09:42:21;100941.91;;;2.42;100.00
73101;BME280;61288;53.446;-2.266;2023-12-04T09:44:48;100935.06;;;2.46;100.00
73101;BME280;61288;53.446;-2.266;2023-12-04T09:47:17;100935.06;;;2.49;100.00
73101;BME280;61288;53.446;-2.266;2023-12-04T09:49:44;100944.44;;;2.53;100.00
73101;BME280;61288;53.446;-2.266;2023-12-04T09:52:10;100941.88;;;2.56;100.00
73101;BME280;61288;53.446;-2.266;2023-12-04T09:54:35;100934.19;;;2.59;100.00
73101;BME280;61288;53.446;-2.266;2023-12-04T09:57:03;100927.34;;;2.65;100.00
73101;BME280;61288;53.446;-2.266;2023-12-04T09:59:30;100936.69;;;2.69;100.00
73101;BME280;61288;53.446;-2.266;2023-12-04T10:01:56;100932.44;;;2.72;100.00
73101;BME280;61288;53.446;-2.266;2023-12-04T10:04:22;100934.09;;;2.80;100.00
73101;BME280;61288;53.446;-2.266;2023-12-04T10:06:52;100941.75;;;2.83;100.00
73101;BME280;61288;53.446;-2.266;2023-12-04T10:09:19;100934.91;;;2.88;100.00
73101;BME280;61288;53.446;-2.266;2023-12-04T10:11:45;100939.16;;;2.94;100.00
73101;BME280;61288;53.446;-2.266;2023-12-04T10:14:20;100935.72;;;2.99;100.00
73101;BME280;61288;53.446;-2.266;2023-12-04T10:16:47;100935.66;;;3.09;100.00
73101;BME280;61288;53.446;-2.266;2023-12-04T10:19:17;100932.22;;;3.13;100.00
73101;BME280;61288;53.446;-2.266;2023-12-04T10:21:47;100926.19;;;3.22;100.00
73101;BME280;61288;53.446;-2.266;2023-12-04T10:24:28;100931.28;;;3.26;100.00
73101;BME280;61288;53.446;-2.266;2023-12-04T10:26:55;100927.84;;;3.32;100.00
73101;BME280;61288;53.446;-2.266;2023-12-04T10:29:22;100925.25;;;3.37;100.00
73101;BME280;61288;53.446;-2.266;2023-12-04T10:31:50;100923.47;;;3.45;100.00
73101;BME280;61288;53.446;-2.266;2023-12-04T10:34:18;100918.31;;;3.53;100.00
73101;BME280;61288;53.446;-2.266;2023-12-04T10:36:45;100919.09;;;3.56;100.00
73101;BME280;61288;53.446;-2.266;2023-12-04T10:39:11;100911.38;;;3.63;100.00
73101;BME280;61288;53.446;-2.266;2023-12-04T10:41:38;100897.69;;;3.65;100.00
73101;BME280;61288;53.446;-2.266;2023-12-04T10:44:04;100895.94;;;3.72;100.00
73101;BME280;61288;53.446;-2.266;2023-12-04T10:46:30;100892.44;;;3.78;100.00
73101;BME280;61288;53.446;-2.266;2023-12-04T10:48:57;100887.28;;;3.81;100.00
73101;BME280;61288;53.446;-2.266;2023-12-04T10:51:23;100876.16;;;3.83;100.00
73101;BME280;61288;53.446;-2.266;2023-12-04T10:53:49;100879.53;;;3.88;100.00
73101;BME280;61288;53.446;-2.266;2023-12-04T10:56:24;100871.81;;;3.93;100.00
73101;BME280;61288;53.446;-2.266;2023-12-04T10:58:51;100870.09;;;3.90;100.00
73101;BME280;61288;53.446;-2.266;2023-12-04T11:01:19;100861.56;;;3.93;100.00
73101;BME280;61288;53.446;-2.266;2023-12-04T11:03:52;100858.13;;;3.93;100.00
73101;BME280;61288;53.446;-2.266;2023-12-04T11:06:21;100857.25;;;3.94;100.00
73101;BME280;61288;53.446;-2.266;2023-12-04T11:08:48;100847.81;;;3.99;100.00
73101;BME280;61288;53.446;-2.266;2023-12-04T11:11:19;100844.41;;;4.00;100.00
73101;BME280;61288;53.446;-2.266;2023-12-04T11:13:54;100846.19;;;3.90;100.00
73101;BME280;61288;53.446;-2.266;2023-12-04T11:19:01;100832.53;;;3.89;100.00
73101;BME280;61288;53.446;-2.266;2023-12-04T11:21:29;100826.53;;;3.92;100.00
73101;BME280;61288;53.446;-2.266;2023-12-04T11:23:56;100817.16;;;3.88;100.00
73101;BME280;61288;53.446;-2.266;2023-12-04T11:26:23;100807.72;;;3.93;100.00
73101;BME280;61288;53.446;-2.266;2023-12-04T11:28:51;100804.31;;;3.91;100.00
73101;BME280;61288;53.446;-2.266;2023-12-04T11:31:16;100811.16;;;3.92;100.00
73101;BME280;61288;53.446;-2.266;2023-12-04T11:33:42;100806.91;;;3.88;100.00
73101;BME280;61288;53.446;-2.266;2023-12-04T11:36:09;100794.09;;;3.86;100.00
73101;BME280;61288;53.446;-2.266;2023-12-04T11:38:36;100789.00;;;3.85;100.00
73101;BME280;61288;53.446;-2.266;2023-12-04T11:41:18;100785.59;;;3.84;100.00
73101;BME280;61288;53.446;-2.266;2023-12-04T11:43:45;100784.72;;;3.87;100.00
73101;BME280;61288;53.446;-2.266;2023-12-04T11:46:12;100778.72;;;3.88;100.00
73101;BME280;61288;53.446;-2.266;2023-12-04T11:48:38;100770.13;;;3.92;100.00
73101;BME280;61288;53.446;-2.266;2023-12-04T11:51:07;100769.25;;;3.93;100.00
73101;BME280;61288;53.446;-2.266;2023-12-04T11:53:43;100759.00;;;3.92;100.00
73101;BME280;61288;53.446;-2.266;2023-12-04T11:56:13;100757.28;;;3.94;100.00
73101;BME280;61288;53.446;-2.266;2023-12-04T11:58:42;100752.19;;;3.90;100.00
73101;BME280;61288;53.446;-2.266;2023-12-04T12:01:08;100746.25;;;3.85;100.00
73101;BME280;61288;53.446;-2.266;2023-12-04T12:03:34;100747.13;;;3.86;100.00
73101;BME280;61288;53.446;-2.266;2023-12-04T12:06:00;100744.56;;;3.84;100.00
73101;BME280;61288;53.446;-2.266;2023-12-04T12:08:28;100744.56;;;3.84;100.00
73101;BME280;61288;53.446;-2.266;2023-12-04T12:10:54;100736.06;;;3.84;100.00
73101;BME280;61288;53.446;-2.266;2023-12-04T12:13:21;100733.53;;;3.79;100.00
73101;BME280;61288;53.446;-2.266;2023-12-04T12:15:47;100725.88;;;3.76;100.00
73101;BME280;61288;53.446;-2.266;2023-12-04T12:18:16;100730.19;;;3.74;100.00
73101;BME280;61288;53.446;-2.266;2023-12-04T12:20:43;100723.34;;;3.71;100.00
73101;BME280;61288;53.446;-2.266;2023-12-04T12:23:08;100723.41;;;3.70;100.00
73101;BME280;61288;53.446;-2.266;2023-12-04T12:25:37;100719.13;;;3.67;100.00
73101;BME280;61288;53.446;-2.266;2023-12-04T12:28:04;100717.47;;;3.65;100.00
73101;BME280;61288;53.446;-2.266;2023-12-04T12:30:30;100725.16;;;3.61;100.00
73101;BME280;61288;53.446;-2.266;2023-12-04T12:32:56;100722.66;;;3.60;100.00
73101;BME280;61288;53.446;-2.266;2023-12-04T12:35:23;100724.34;;;3.59;100.00
73101;BME280;61288;53.446;-2.266;2023-12-04T12:37:50;100727.78;;;3.58;100.00
73101;BME280;61288;53.446;-2.266;2023-12-04T12:40:21;100734.63;;;3.56;100.00